Aviation Digital Data Service (ADDS)

Output produced by METARs form (1957 UTC 25 February 2018)
found at http://aviationweather.gov/adds/metars/
 
METAR text: EHGG 251955Z AUTO 06010KT 9999 NCD M04/M07 Q1033 NOSIG
Conditions at: EHGG (GRONINGEN/EELDE , NL) observed 1955 UTC 25 February 2018
Temperature: -4.0°C (25°F)
Dewpoint: -7.0°C (19°F) [RH = 80%]
Pressure (altimeter): 30.50 inches Hg (1033.0 mb)
Winds: from the ENE (60 degrees) at 12 MPH (10 knots; 5.2 m/s)
Visibility: 6 or more miles (10+ km)
Ceiling: at least 12,000 feet AGL
Clouds: sky clear below 12,000 feet AGL
Weather: no significant weather observed at this time